sensor_id;sensor_type;location;lat;lon;timestamp;pressure;altitude;pressure_sealevel;temperature;humidity
24788;BME280;12883;52.662;5.196;2023-04-07T00:00:48;101399.88;;;9.86;100.00
24788;BME280;12883;52.662;5.196;2023-04-07T00:03:13;101404.16;;;9.87;100.00
24788;BME280;12883;52.662;5.196;2023-04-07T00:05:39;101402.63;;;9.92;100.00
24788;BME280;12883;52.662;5.196;2023-04-07T00:08:04;101401.44;;;9.80;100.00
24788;BME280;12883;52.662;5.196;2023-04-07T00:10:29;101402.91;;;9.83;100.00
24788;BME280;12883;52.662;5.196;2023-04-07T00:12:55;101408.53;;;9.80;100.00
24788;BME280;12883;52.662;5.196;2023-04-07T00:15:20;101401.97;;;9.76;100.00
24788;BME280;12883;52.662;5.196;2023-04-07T00:17:45;101405.25;;;9.78;100.00
24788;BME280;12883;52.662;5.196;2023-04-07T00:20:11;101405.25;;;9.78;100.00
24788;BME280;12883;52.662;5.196;2023-04-07T00:22:36;101408.53;;;9.80;100.00
24788;BME280;12883;52.662;5.196;2023-04-07T00:25:02;101410.38;;;9.79;100.00
24788;BME280;12883;52.662;5.196;2023-04-07T00:27:27;101408.81;;;9.85;100.00
24788;BME280;12883;52.662;5.196;2023-04-07T00:29:52;101394.81;;;9.76;100.00
24788;BME280;12883;52.662;5.196;2023-04-07T00:32:20;101405.53;;;9.83;100.00
24788;BME280;12883;52.662;5.196;2023-04-07T00:34:45;101413.84;;;9.80;100.00
24788;BME280;12883;52.662;5.196;2023-04-07T00:37:11;101399.31;;;9.76;100.00
24788;BME280;12883;52.662;5.196;2023-04-07T00:39:36;101412.81;;;9.81;100.00
24788;BME280;12883;52.662;5.196;2023-04-07T00:42:04;101410.84;;;9.83;100.00
24788;BME280;12883;52.662;5.196;2023-04-07T00:44:31;101413.84;;;9.80;100.00
24788;BME280;12883;52.662;5.196;2023-04-07T00:46:56;101418.97;;;9.81;100.00
24788;BME280;12883;52.662;5.196;2023-04-07T00:49:21;101416.78;;;9.85;100.00
24788;BME280;12883;52.662;5.196;2023-04-07T00:51:47;101406.34;;;9.69;100.00
24788;BME280;12883;52.662;5.196;2023-04-07T00:54:12;101426.44;;;9.78;100.00
24788;BME280;12883;52.662;5.196;2023-04-07T00:56:38;101411.97;;;9.66;100.00
24788;BME280;12883;52.662;5.196;2023-04-07T00:59:04;101427.78;;;9.74;100.00
24788;BME280;12883;52.662;5.196;2023-04-07T01:01:35;101422.31;;;9.75;100.00
24788;BME280;12883;52.662;5.196;2023-04-07T01:04:11;101430.09;;;9.77;100.00
24788;BME280;12883;52.662;5.196;2023-04-07T01:06:39;101406.13;;;9.70;100.00
24788;BME280;12883;52.662;5.196;2023-04-07T01:09:16;101409.16;;;9.67;100.00
24788;BME280;12883;52.662;5.196;2023-04-07T01:11:58;101377.03;;;9.48;100.00
24788;BME280;12883;52.662;5.196;2023-04-07T01:14:28;101422.78;;;9.79;100.00
24788;BME280;12883;52.662;5.196;2023-04-07T01:17:00;101421.69;;;9.73;100.00
24788;BME280;12883;52.662;5.196;2023-04-07T01:19:42;101416.72;;;9.70;100.00
24788;BME280;12883;52.662;5.196;2023-04-07T01:22:16;101416.56;;;9.72;100.00
24788;BME280;12883;52.662;5.196;2023-04-07T01:30:20;101426.34;;;9.71;100.00
24788;BME280;12883;52.662;5.196;2023-04-07T01:32:49;101421.88;;;9.72;100.00
24788;BME280;12883;52.662;5.196;2023-04-07T01:35:17;101428.47;;;9.76;100.00
24788;BME280;12883;52.662;5.196;2023-04-07T01:37:43;101425.16;;;9.74;100.00
24788;BME280;12883;52.662;5.196;2023-04-07T01:40:13;101428.09;;;9.79;100.00
24788;BME280;12883;52.662;5.196;2023-04-07T01:42:39;101411.97;;;9.66;100.00
24788;BME280;12883;52.662;5.196;2023-04-07T01:45:07;101419.84;;;9.74;100.00
24788;BME280;12883;52.662;5.196;2023-04-07T01:47:34;101394.34;;;9.58;100.00
24788;BME280;12883;52.662;5.196;2023-04-07T01:50:02;101421.63;;;9.81;100.00
24788;BME280;12883;52.662;5.196;2023-04-07T01:52:30;101422.00;;;9.78;100.00
24788;BME280;12883;52.662;5.196;2023-04-07T01:54:56;101429.28;;;9.76;100.00
24788;BME280;12883;52.662;5.196;2023-04-07T01:57:21;101396.44;;;9.63;100.00
24788;BME280;12883;52.662;5.196;2023-04-07T01:59:47;101435.25;;;9.78;100.00
24788;BME280;12883;52.662;5.196;2023-04-07T02:02:12;101419.69;;;9.75;100.00
24788;BME280;12883;52.662;5.196;2023-04-07T02:07:21;101431.28;;;9.74;100.00
24788;BME280;12883;52.662;5.196;2023-04-07T02:09:50;101437.44;;;9.75;100.00
24788;BME280;12883;52.662;5.196;2023-04-07T02:12:18;101428.63;;;9.74;100.00
24788;BME280;12883;52.662;5.196;2023-04-07T02:14:43;101424.50;;;9.72;100.00
24788;BME280;12883;52.662;5.196;2023-04-07T02:17:10;101437.75;;;9.72;100.00
24788;BME280;12883;52.662;5.196;2023-04-07T02:19:36;101430.19;;;9.69;100.00
24788;BME280;12883;52.662;5.196;2023-04-07T02:22:03;101436.75;;;9.73;100.00
24788;BME280;12883;52.662;5.196;2023-04-07T02:24:29;101434.78;;;9.75;100.00
24788;BME280;12883;52.662;5.196;2023-04-07T02:26:54;101432.28;;;9.73;100.00
24788;BME280;12883;52.662;5.196;2023-04-07T02:29:20;101434.78;;;9.75;100.00
24788;BME280;12883;52.662;5.196;2023-04-07T02:31:45;101438.59;;;9.72;100.00
24788;BME280;12883;52.662;5.196;2023-04-07T02:34:11;101432.28;;;9.73;100.00
24788;BME280;12883;52.662;5.196;2023-04-07T02:36:36;101435.66;;;9.67;100.00
24788;BME280;12883;52.662;5.196;2023-04-07T02:39:01;101431.19;;;9.68;100.00
24788;BME280;12883;52.662;5.196;2023-04-07T02:41:27;101435.66;;;9.67;100.00
24788;BME280;12883;52.662;5.196;2023-04-07T02:43:52;101432.84;;;9.69;100.00
24788;BME280;12883;52.662;5.196;2023-04-07T02:46:18;101434.47;;;9.70;100.00
24788;BME280;12883;52.662;5.196;2023-04-07T02:48:43;101428.25;;;9.63;100.00
24788;BME280;12883;52.662;5.196;2023-04-07T02:51:08;101423.88;;;9.70;100.00
24788;BME280;12883;52.662;5.196;2023-04-07T02:53:34;101427.53;;;9.69;100.00
24788;BME280;12883;52.662;5.196;2023-04-07T02:55:59;101433.47;;;9.71;100.00
24788;BME280;12883;52.662;5.196;2023-04-07T02:58:25;101425.53;;;9.71;100.00
24788;BME280;12883;52.662;5.196;2023-04-07T03:00:50;101425.88;;;9.68;100.00
24788;BME280;12883;52.662;5.196;2023-04-07T03:03:15;101421.09;;;9.63;100.00
24788;BME280;12883;52.662;5.196;2023-04-07T03:05:41;101415.63;;;9.65;100.00
24788;BME280;12883;52.662;5.196;2023-04-07T03:08:06;101426.22;;;9.65;100.00
24788;BME280;12883;52.662;5.196;2023-04-07T03:10:31;101423.28;;;9.60;100.00
24788;BME280;12883;52.662;5.196;2023-04-07T03:12:57;101422.47;;;9.59;100.00
24788;BME280;12883;52.662;5.196;2023-04-07T03:15:22;101429.88;;;9.64;100.00
24788;BME280;12883;52.662;5.196;2023-04-07T03:17:48;101422.78;;;9.64;100.00
24788;BME280;12883;52.662;5.196;2023-04-07T03:20:13;101442.50;;;9.62;100.00
24788;BME280;12883;52.662;5.196;2023-04-07T03:22:38;101437.66;;;9.65;100.00
24788;BME280;12883;52.662;5.196;2023-04-07T03:25:04;101438.00;;;9.62;100.00
24788;BME280;12883;52.662;5.196;2023-04-07T03:27:29;101442.13;;;9.65;100.00
24788;BME280;12883;52.662;5.196;2023-04-07T03:29:55;101445.31;;;9.60;100.00
24788;BME280;12883;52.662;5.196;2023-04-07T03:32:20;101438.00;;;9.62;100.00
24788;BME280;12883;52.662;5.196;2023-04-07T03:34:45;101454.44;;;9.58;100.00
24788;BME280;12883;52.662;5.196;2023-04-07T03:37:11;101441.50;;;9.63;100.00
24788;BME280;12883;52.662;5.196;2023-04-07T03:39:36;101436.03;;;9.64;100.00
24788;BME280;12883;52.662;5.196;2023-04-07T03:42:02;101438.19;;;9.61;100.00
24788;BME280;12883;52.662;5.196;2023-04-07T03:44:27;101432.44;;;9.57;100.00
24788;BME280;12883;52.662;5.196;2023-04-07T03:46:53;101439.19;;;9.60;100.00
24788;BME280;12883;52.662;5.196;2023-04-07T03:49:18;101434.63;;;9.54;100.00
24788;BME280;12883;52.662;5.196;2023-04-07T03:51:44;101429.31;;;9.54;100.00
24788;BME280;12883;52.662;5.196;2023-04-07T03:54:09;101438.91;;;9.55;100.00
24788;BME280;12883;52.662;5.196;2023-04-07T03:56:35;101438.22;;;9.53;100.00
24788;BME280;12883;52.662;5.196;2023-04-07T03:59:01;101431.75;;;9.55;100.00
24788;BME280;12883;52.662;5.196;2023-04-07T04:01:27;101434.94;;;9.51;100.00
24788;BME280;12883;52.662;5.196;2023-04-07T04:03:52;101443.53;;;9.53;100.00
24788;BME280;12883;52.662;5.196;2023-04-07T04:06:17;101420.47;;;9.39;100.00
24788;BME280;12883;52.662;5.196;2023-04-07T04:08:43;101440.25;;;9.51;100.00
24788;BME280;12883;52.662;5.196;2023-04-07T04:11:08;101440.25;;;9.51;100.00
24788;BME280;12883;52.662;5.196;2023-04-07T04:13:33;101441.72;;;9.53;100.00
24788;BME280;12883;52.662;5.196;2023-04-07T04:15:59;101436.97;;;9.49;100.00
24788;BME280;12883;52.662;5.196;2023-04-07T04:18:24;101444.53;;;9.52;100.00
24788;BME280;12883;52.662;5.196;2023-04-07T04:20:49;101443.38;;;9.54;100.00
24788;BME280;12883;52.662;5.196;2023-04-07T04:23:15;101444.00;;;9.56;100.00
24788;BME280;12883;52.662;5.196;2023-04-07T04:25:40;101450.13;;;9.57;100.00
24788;BME280;12883;52.662;5.196;2023-04-07T04:28:06;101451.94;;;9.56;100.00
24788;BME280;12883;52.662;5.196;2023-04-07T04:30:31;101421.63;;;9.37;100.00
24788;BME280;12883;52.662;5.196;2023-04-07T04:32:57;101459.72;;;9.58;100.00
24788;BME280;12883;52.662;5.196;2023-04-07T04:35:22;101456.44;;;9.56;100.00
24788;BME280;12883;52.662;5.196;2023-04-07T04:37:48;101466.56;;;9.52;100.00
24788;BME280;12883;52.662;5.196;2023-04-07T04:40:13;101471.03;;;9.52;100.00
24788;BME280;12883;52.662;5.196;2023-04-07T04:42:39;101469.31;;;9.59;100.00
24788;BME280;12883;52.662;5.196;2023-04-07T04:45:05;101458.47;;;9.46;100.00
24788;BME280;12883;52.662;5.196;2023-04-07T04:47:30;101471.88;;;9.52;100.00
24788;BME280;12883;52.662;5.196;2023-04-07T04:49:56;101472.50;;;9.54;100.00
24788;BME280;12883;52.662;5.196;2023-04-07T04:52:21;101462.06;;;9.53;100.00
24788;BME280;12883;52.662;5.196;2023-04-07T04:54:46;101474.34;;;9.54;100.00
24788;BME280;12883;52.662;5.196;2023-04-07T04:57:12;101470.03;;;9.53;100.00
24788;BME280;12883;52.662;5.196;2023-04-07T04:59:37;101477.34;;;9.51;100.00
24788;BME280;12883;52.662;5.196;2023-04-07T05:02:04;101482.94;;;9.56;100.00
24788;BME280;12883;52.662;5.196;2023-04-07T05:04:30;101480.28;;;9.56;100.00
24788;BME280;12883;52.662;5.196;2023-04-07T05:06:55;101483.56;;;9.58;100.00
24788;BME280;12883;52.662;5.196;2023-04-07T05:09:21;101487.75;;;9.52;100.00
24788;BME280;12883;52.662;5.196;2023-04-07T05:11:46;101481.94;;;9.57;100.00
24788;BME280;12883;52.662;5.196;2023-04-07T05:14:12;101485.22;;;9.59;100.00
24788;BME280;12883;52.662;5.196;2023-04-07T05:16:37;101490.53;;;9.59;100.00
24788;BME280;12883;52.662;5.196;2023-04-07T05:19:02;101487.88;;;9.59;100.00
24788;BME280;12883;52.662;5.196;2023-04-07T05:21:28;101491.84;;;9.63;100.00
24788;BME280;12883;52.662;5.196;2023-04-07T05:23:53;101502.44;;;9.63;100.00
24788;BME280;12883;52.662;5.196;2023-04-07T05:26:18;101506.41;;;9.59;100.00
24788;BME280;12883;52.662;5.196;2023-04-07T05:28:44;101501.13;;;9.59;100.00
24788;BME280;12883;52.662;5.196;2023-04-07T05:31:09;101481.34;;;9.47;100.00
24788;BME280;12883;52.662;5.196;2023-04-07T05:33:35;101504.72;;;9.66;100.00
24788;BME280;12883;52.662;5.196;2023-04-07T05:36:00;101491.88;;;9.55;100.00
24788;BME280;12883;52.662;5.196;2023-04-07T05:38:26;101503.59;;;9.60;100.00
24788;BME280;12883;52.662;5.196;2023-04-07T05:40:51;101508.25;;;9.58;100.00
24788;BME280;12883;52.662;5.196;2023-04-07T05:43:16;101513.34;;;9.60;100.00
24788;BME280;12883;52.662;5.196;2023-04-07T05:45:42;101499.13;;;9.61;100.00
24788;BME280;12883;52.662;5.196;2023-04-07T05:48:07;101508.44;;;9.57;100.00
24788;BME280;12883;52.662;5.196;2023-04-07T05:50:32;101507.25;;;9.59;100.00
24788;BME280;12883;52.662;5.196;2023-04-07T05:52:58;101509.38;;;9.64;100.00
24788;BME280;12883;52.662;5.196;2023-04-07T05:55:23;101512.03;;;9.64;100.00
24788;BME280;12883;52.662;5.196;2023-04-07T05:57:48;101511.84;;;9.65;100.00
24788;BME280;12883;52.662;5.196;2023-04-07T06:00:14;101519.13;;;9.63;100.00
24788;BME280;12883;52.662;5.196;2023-04-07T06:02:40;101498.41;;;9.45;100.00
24788;BME280;12883;52.662;5.196;2023-04-07T06:05:06;101517.16;;;9.65;100.00
24788;BME280;12883;52.662;5.196;2023-04-07T06:07:31;101535.88;;;9.64;100.00
24788;BME280;12883;52.662;5.196;2023-04-07T06:09:56;101529.72;;;9.63;100.00
24788;BME280;12883;52.662;5.196;2023-04-07T06:12:22;101531.56;;;9.63;100.00
24788;BME280;12883;52.662;5.196;2023-04-07T06:14:52;101535.03;;;9.63;100.00
24788;BME280;12883;52.662;5.196;2023-04-07T06:17:18;101496.78;;;9.44;100.00
24788;BME280;12883;52.662;5.196;2023-04-07T06:19:44;101536.34;;;9.67;100.00
24788;BME280;12883;52.662;5.196;2023-04-07T06:22:09;101541.47;;;9.69;100.00
24788;BME280;12883;52.662;5.196;2023-04-07T06:24:35;101524.69;;;9.54;100.00
24788;BME280;12883;52.662;5.196;2023-04-07T06:27:00;101550.59;;;9.66;100.00
24788;BME280;12883;52.662;5.196;2023-04-07T06:29:26;101545.94;;;9.68;100.00
24788;BME280;12883;52.662;5.196;2023-04-07T06:31:52;101547.59;;;9.69;100.00
24788;BME280;12883;52.662;5.196;2023-04-07T06:34:17;101550.59;;;9.66;100.00
24788;BME280;12883;52.662;5.196;2023-04-07T06:36:42;101553.56;;;9.71;100.00
24788;BME280;12883;52.662;5.196;2023-04-07T06:39:08;101554.38;;;9.72;100.00
24788;BME280;12883;52.662;5.196;2023-04-07T06:41:33;101547.78;;;9.68;100.00
24788;BME280;12883;52.662;5.196;2023-04-07T06:43:59;101550.59;;;9.66;100.00
24788;BME280;12883;52.662;5.196;2023-04-07T06:46:24;101561.66;;;9.70;100.00
24788;BME280;12883;52.662;5.196;2023-04-07T06:48:51;101563.78;;;9.74;100.00
24788;BME280;12883;52.662;5.196;2023-04-07T06:51:16;101561.97;;;9.75;100.00
24788;BME280;12883;52.662;5.196;2023-04-07T06:53:41;101567.09;;;9.76;100.00
24788;BME280;12883;52.662;5.196;2023-04-07T06:56:10;101569.94;;;9.75;100.00
24788;BME280;12883;52.662;5.196;2023-04-07T06:58:36;101578.00;;;9.81;100.00
24788;BME280;12883;52.662;5.196;2023-04-07T07:01:04;101577.47;;;9.86;100.00
24788;BME280;12883;52.662;5.196;2023-04-07T07:03:30;101549.44;;;9.69;100.00
24788;BME280;12883;52.662;5.196;2023-04-07T07:05:59;101548.94;;;9.65;100.00
24788;BME280;12883;52.662;5.196;2023-04-07T07:08:26;101563.44;;;9.77;100.00
24788;BME280;12883;52.662;5.196;2023-04-07T07:10:52;101586.03;;;9.96;100.00
24788;BME280;12883;52.662;5.196;2023-04-07T07:13:18;101578.88;;;9.96;100.00
24788;BME280;12883;52.662;5.196;2023-04-07T07:15:44;101579.72;;;9.97;100.00
24788;BME280;12883;52.662;5.196;2023-04-07T07:18:10;101561.25;;;9.81;100.00
24788;BME280;12883;52.662;5.196;2023-04-07T07:20:36;101588.31;;;9.99;100.00
24788;BME280;12883;52.662;5.196;2023-04-07T07:23:01;101601.84;;;10.12;100.00
24788;BME280;12883;52.662;5.196;2023-04-07T07:25:26;101598.91;;;9.99;100.00
24788;BME280;12883;52.662;5.196;2023-04-07T07:27:52;101575.91;;;9.91;100.00
24788;BME280;12883;52.662;5.196;2023-04-07T07:30:19;101602.84;;;10.11;100.00
24788;BME280;12883;52.662;5.196;2023-04-07T07:32:44;101600.84;;;10.13;100.00
24788;BME280;12883;52.662;5.196;2023-04-07T07:35:10;101598.50;;;10.18;100.00
24788;BME280;12883;52.662;5.196;2023-04-07T07:37:35;101601.13;;;10.18;100.00
24788;BME280;12883;52.662;5.196;2023-04-07T07:40:01;101598.66;;;10.16;100.00
24788;BME280;12883;52.662;5.196;2023-04-07T07:42:26;101612.38;;;10.20;100.00
24788;BME280;12883;52.662;5.196;2023-04-07T07:44:51;101610.38;;;10.22;100.00
24788;BME280;12883;52.662;5.196;2023-04-07T07:47:17;101615.50;;;10.23;100.00
24788;BME280;12883;52.662;5.196;2023-04-07T07:49:42;101615.66;;;10.30;100.00
24788;BME280;12883;52.662;5.196;2023-04-07T07:52:08;101622.47;;;10.24;100.00
24788;BME280;12883;52.662;5.196;2023-04-07T07:54:33;101625.81;;;10.18;100.00
24788;BME280;12883;52.662;5.196;2023-04-07T07:56:58;101628.59;;;10.25;100.00
24788;BME280;12883;52.662;5.196;2023-04-07T07:59:24;101627.47;;;10.19;100.00
24788;BME280;12883;52.662;5.196;2023-04-07T08:01:49;101600.00;;;10.12;100.00
24788;BME280;12883;52.662;5.196;2023-04-07T08:04:14;101620.81;;;10.23;100.00
24788;BME280;12883;52.662;5.196;2023-04-07T08:06:40;101632.53;;;10.29;100.00
24788;BME280;12883;52.662;5.196;2023-04-07T08:09:06;101629.25;;;10.27;100.00
24788;BME280;12883;52.662;5.196;2023-04-07T08:11:31;101634.31;;;10.36;100.00
24788;BME280;12883;52.662;5.196;2023-04-07T08:13:56;101647.75;;;10.35;100.00
24788;BME280;12883;52.662;5.196;2023-04-07T08:16:22;101649.13;;;10.31;100.00
24788;BME280;12883;52.662;5.196;2023-04-07T08:18:48;101648.22;;;10.38;100.00
24788;BME280;12883;52.662;5.196;2023-04-07T08:21:13;101636.09;;;10.44;100.00
24788;BME280;12883;52.662;5.196;2023-04-07T08:23:39;101647.19;;;10.47;100.00
24788;BME280;12883;52.662;5.196;2023-04-07T08:26:04;101639.00;;;10.49;100.00
24788;BME280;12883;52.662;5.196;2023-04-07T08:28:29;101639.47;;;10.52;100.00
24788;BME280;12883;52.662;5.196;2023-04-07T08:30:55;101648.81;;;10.48;100.00
24788;BME280;12883;52.662;5.196;2023-04-07T08:33:21;101653.22;;;10.56;100.00
24788;BME280;12883;52.662;5.196;2023-04-07T08:35:46;101644.91;;;10.59;100.00
24788;BME280;12883;52.662;5.196;2023-04-07T08:38:11;101659.22;;;10.50;100.00
24788;BME280;12883;52.662;5.196;2023-04-07T08:40:37;101660.59;;;10.46;100.00
24788;BME280;12883;52.662;5.196;2023-04-07T08:43:07;101666.84;;;10.53;100.00
24788;BME280;12883;52.662;5.196;2023-04-07T08:45:37;101671.00;;;10.55;100.00
24788;BME280;12883;52.662;5.196;2023-04-07T08:48:04;101673.66;;;10.55;100.00
24788;BME280;12883;52.662;5.196;2023-04-07T08:50:35;101680.75;;;10.55;100.00
24788;BME280;12883;52.662;5.196;2023-04-07T08:53:04;101677.03;;;10.64;100.00
24788;BME280;12883;52.662;5.196;2023-04-07T08:55:34;101678.41;;;10.60;100.00
24788;BME280;12883;52.662;5.196;2023-04-07T08:58:00;101675.63;;;10.76;100.00
24788;BME280;12883;52.662;5.196;2023-04-07T09:00:26;101688.41;;;10.72;100.00
24788;BME280;12883;52.662;5.196;2023-04-07T09:02:52;101685.94;;;10.71;100.00
24788;BME280;12883;52.662;5.196;2023-04-07T09:05:17;101681.47;;;10.71;100.00
24788;BME280;12883;52.662;5.196;2023-04-07T09:07:43;101674.13;;;10.73;100.00
24788;BME280;12883;52.662;5.196;2023-04-07T09:10:09;101694.03;;;10.77;100.00
24788;BME280;12883;52.662;5.196;2023-04-07T09:12:35;101676.25;;;10.78;100.00
24788;BME280;12883;52.662;5.196;2023-04-07T09:15:01;101660.38;;;10.55;100.00
24788;BME280;12883;52.662;5.196;2023-04-07T09:17:27;101683.34;;;10.85;100.00
24788;BME280;12883;52.662;5.196;2023-04-07T09:19:57;101679.88;;;10.99;100.00
24788;BME280;12883;52.662;5.196;2023-04-07T09:22:36;101681.44;;;11.08;100.00
24788;BME280;12883;52.662;5.196;2023-04-07T09:25:29;101685.66;;;11.03;100.00
24788;BME280;12883;52.662;5.196;2023-04-07T09:27:55;101696.03;;;11.12;100.00
24788;BME280;12883;52.662;5.196;2023-04-07T09:30:21;101705.38;;;11.23;100.00
24788;BME280;12883;52.662;5.196;2023-04-07T09:32:46;101701.53;;;11.25;100.00
24788;BME280;12883;52.662;5.196;2023-04-07T09:35:11;101701.16;;;11.28;100.00
24788;BME280;12883;52.662;5.196;2023-04-07T09:37:37;101703.56;;;11.23;100.00
24788;BME280;12883;52.662;5.196;2023-04-07T09:40:03;101709.88;;;11.37;100.00
24788;BME280;12883;52.662;5.196;2023-04-07T09:42:28;101669.94;;;11.16;100.00
24788;BME280;12883;52.662;5.196;2023-04-07T09:44:58;101709.88;;;11.37;100.00
24788;BME280;12883;52.662;5.196;2023-04-07T09:47:27;101704.50;;;11.30;100.00
24788;BME280;12883;52.662;5.196;2023-04-07T09:49:57;101700.91;;;11.38;100.00
24788;BME280;12883;52.662;5.196;2023-04-07T09:52:50;101713.94;;;11.47;100.00
24788;BME280;12883;52.662;5.196;2023-04-07T09:55:19;101710.97;;;11.42;100.00
24788;BME280;12883;52.662;5.196;2023-04-07T09:57:46;101706.78;;;11.48;100.00
24788;BME280;12883;52.662;5.196;2023-04-07T10:00:13;101702.56;;;11.39;100.00
24788;BME280;12883;52.662;5.196;2023-04-07T10:02:39;101719.06;;;11.49;100.00
24788;BME280;12883;52.662;5.196;2023-04-07T10:05:05;101712.16;;;11.40;100.00
24788;BME280;12883;52.662;5.196;2023-04-07T10:07:31;101715.75;;;11.47;100.00
24788;BME280;12883;52.662;5.196;2023-04-07T10:09:56;101718.00;;;11.58;100.00
24788;BME280;12883;52.662;5.196;2023-04-07T10:12:22;101724.28;;;11.57;100.00
24788;BME280;12883;52.662;5.196;2023-04-07T10:14:49;101716.63;;;11.62;100.00
24788;BME280;12883;52.662;5.196;2023-04-07T10:17:16;101718.97;;;11.57;100.00
24788;BME280;12883;52.662;5.196;2023-04-07T10:19:44;101717.25;;;11.64;100.00
24788;BME280;12883;52.662;5.196;2023-04-07T10:22:11;101725.78;;;11.59;100.00
24788;BME280;12883;52.662;5.196;2023-04-07T10:25:03;101722.75;;;11.62;100.00
24788;BME280;12883;52.662;5.196;2023-04-07T10:27:33;101714.94;;;11.46;100.00
24788;BME280;12883;52.662;5.196;2023-04-07T10:29:59;101733.56;;;11.61;100.00
24788;BME280;12883;52.662;5.196;2023-04-07T10:32:25;101732.44;;;11.55;100.00
24788;BME280;12883;52.662;5.196;2023-04-07T10:37:22;101734.91;;;11.57;100.00
24788;BME280;12883;52.662;5.196;2023-04-07T10:39:49;101745.91;;;11.54;100.00
24788;BME280;12883;52.662;5.196;2023-04-07T10:45:07;101742.47;;;11.68;100.00
24788;BME280;12883;52.662;5.196;2023-04-07T10:47:33;101746.56;;;11.56;100.00
24788;BME280;12883;52.662;5.196;2023-04-07T10:50:22;101748.44;;;11.70;100.00
24788;BME280;12883;52.662;5.196;2023-04-07T10:53:01;101751.72;;;11.72;100.00
24788;BME280;12883;52.662;5.196;2023-04-07T10:55:35;101746.78;;;11.69;100.00
24788;BME280;12883;52.662;5.196;2023-04-07T10:58:20;101748.25;;;11.86;100.00
24788;BME280;12883;52.662;5.196;2023-04-07T11:03:21;101752.38;;;11.88;100.00
24788;BME280;12883;52.662;5.196;2023-04-07T11:05:47;101756.03;;;11.87;100.00
24788;BME280;12883;52.662;5.196;2023-04-07T11:08:12;101756.78;;;11.81;100.00
24788;BME280;12883;52.662;5.196;2023-04-07T11:10:37;101767.13;;;11.76;100.00
24788;BME280;12883;52.662;5.196;2023-04-07T11:13:06;101765.94;;;11.79;100.00
24788;BME280;12883;52.662;5.196;2023-04-07T11:15:36;101769.91;;;11.83;100.00
24788;BME280;12883;52.662;5.196;2023-04-07T11:18:21;101769.31;;;11.73;100.00
24788;BME280;12883;52.662;5.196;2023-04-07T11:20:51;101767.22;;;11.68;100.00
24788;BME280;12883;52.662;5.196;2023-04-07T11:23:18;101772.72;;;11.67;100.00
24788;BME280;12883;52.662;5.196;2023-04-07T11:25:47;101780.81;;;11.73;100.00
24788;BME280;12883;52.662;5.196;2023-04-07T11:28:13;101780.06;;;11.65;100.00
24788;BME280;12883;52.662;5.196;2023-04-07T11:30:44;101783.25;;;11.75;100.00
24788;BME280;12883;52.662;5.196;2023-04-07T11:33:14;101788.66;;;11.67;100.00
24788;BME280;12883;52.662;5.196;2023-04-07T11:35:47;101783.44;;;11.59;100.00
24788;BME280;12883;52.662;5.196;2023-04-07T11:38:13;101771.47;;;11.40;100.00
24788;BME280;12883;52.662;5.196;2023-04-07T11:40:38;101778.81;;;11.53;100.00
24788;BME280;12883;52.662;5.196;2023-04-07T11:43:24;101779.41;;;11.63;100.00
24788;BME280;12883;52.662;5.196;2023-04-07T11:46:06;101790.97;;;11.70;100.00
24788;BME280;12883;52.662;5.196;2023-04-07T11:48:32;101790.50;;;11.66;100.00
24788;BME280;12883;52.662;5.196;2023-04-07T11:50:59;101792.78;;;11.69;100.00
24788;BME280;12883;52.662;5.196;2023-04-07T11:53:35;101764.13;;;11.42;100.00
24788;BME280;12883;52.662;5.196;2023-04-07T11:56:11;101800.47;;;11.64;100.00
24788;BME280;12883;52.662;5.196;2023-04-07T11:58:53;101795.00;;;11.66;100.00
24788;BME280;12883;52.662;5.196;2023-04-07T12:01:20;101797.03;;;11.64;100.00
24788;BME280;12883;52.662;5.196;2023-04-07T12:03:59;101800.31;;;11.66;100.00
24788;BME280;12883;52.662;5.196;2023-04-07T12:06:30;101799.22;;;11.60;100.00
24788;BME280;12883;52.662;5.196;2023-04-07T12:08:59;101803.34;;;11.63;100.00
24788;BME280;12883;52.662;5.196;2023-04-07T12:11:25;101801.38;;;11.57;100.00
24788;BME280;12883;52.662;5.196;2023-04-07T12:13:51;101805.00;;;11.64;100.00
24788;BME280;12883;52.662;5.196;2023-04-07T12:16:17;101805.16;;;11.62;100.00
24788;BME280;12883;52.662;5.196;2023-04-07T12:18:43;101813.59;;;11.66;100.00
24788;BME280;12883;52.662;5.196;2023-04-07T12:21:09;101808.38;;;11.58;100.00
24788;BME280;12883;52.662;5.196;2023-04-07T12:23:34;101813.59;;;11.66;100.00
24788;BME280;12883;52.662;5.196;2023-04-07T12:26:00;101795.94;;;11.50;100.00
24788;BME280;12883;52.662;5.196;2023-04-07T12:28:26;101824.53;;;11.71;100.00
24788;BME280;12883;52.662;5.196;2023-04-07T12:30:51;101831.66;;;11.70;100.00
24788;BME280;12883;52.662;5.196;2023-04-07T12:33:17;101828.38;;;11.68;100.00
24788;BME280;12883;52.662;5.196;2023-04-07T12:35:43;101835.00;;;11.72;100.00
24788;BME280;12883;52.662;5.196;2023-04-07T12:38:08;101831.50;;;11.72;100.00
24788;BME280;12883;52.662;5.196;2023-04-07T12:40:33;101833.69;;;11.68;100.00
24788;BME280;12883;52.662;5.196;2023-04-07T12:43:00;101845.34;;;11.67;100.00
24788;BME280;12883;52.662;5.196;2023-04-07T12:45:26;101836.53;;;11.67;100.00
24788;BME280;12883;52.662;5.196;2023-04-07T12:47:51;101828.19;;;11.70;100.00
24788;BME280;12883;52.662;5.196;2023-04-07T12:50:16;101851.47;;;11.68;100.00
24788;BME280;12883;52.662;5.196;2023-04-07T12:52:42;101840.41;;;11.56;100.00
24788;BME280;12883;52.662;5.196;2023-04-07T12:55:08;101851.84;;;11.65;100.00
24788;BME280;12883;52.662;5.196;2023-04-07T12:57:33;101855.41;;;11.72;100.00
24788;BME280;12883;52.662;5.196;2023-04-07T12:59:58;101850.81;;;11.66;100.00